SUAA    
 191900Z 19014KT 9999 FEW016 BKN200 15/07 Q1009   
 SUCA    
 162100Z 09005KT CAVOK 16/03 Q1018     
 SUDU    
 191900Z 20017G27KT 8000 FEW026 20/05 Q1006    
 SULS    
 191900Z 18023KT 9999 FEW026 SCT200 15/08 Q1008   
 SUMU    
 191900Z 20016G26KT 9999 FEW020 BKN200 16/07 Q1009 NOSIG  
 SUSO    
 191900Z 25014KT 9999 SCT030 23/11 Q1006    
 SABE    
 191900Z 20007G19KT 140V260 CAVOK 17/M07 Q1010 NOSIG   
 SACO    
 191900Z 17018KT CAVOK 16/M12 Q1015 NOSIG    
 SADF    
 191900Z 20013KT CAVOK 18/M01 Q1010     
 SAEZ    
 191900Z 22015G25KT CAVOK 15/M06 Q1010 NOSIG    
 SAZB    
 181530Z 32028G34KT CAVOK 19/02 Q1004     
 SAZM    
 020100Z 27003KT CAVOK 02/00 Q1017     
 SBPA    
 191900Z 25008KT 9999 SCT045 BKN070 24/17 Q1003   
 SGAS    
 191900Z 17006T 8000 OVC015 24/16 Q1002    
 SGES    
 191900Z 21014KT 8000 TS SCT020 FEW040CB OVC070 21/19 Q1002 
 SCCI    
 191900Z 26021KT 9999 FEW013 SCT130 05/01 Q0990 NOSIG  
 SCRM    
 191900Z 01016KT 9999 SCT033 OVC050 M03/M03 Q0978 NOSIG